createdAt,value
2022-11-26T00:04:53.747Z,100860.84
2022-11-26T00:09:58.312Z,100867.59
2022-11-26T00:15:17.005Z,100876.13
2022-11-26T00:20:25.146Z,100872.47
2022-11-26T00:26:03.704Z,100872.13
2022-11-26T00:31:14.402Z,100879.13
2022-11-26T00:36:31.303Z,100880.91
2022-11-26T00:41:39.100Z,100884.47
2022-11-26T00:46:42.117Z,100878.38
2022-11-26T00:51:46.451Z,100879.13
2022-11-26T00:56:50.747Z,100892.69
2022-11-26T01:01:54.083Z,100892.53
2022-11-26T01:06:56.875Z,100884.47
2022-11-26T01:11:59.776Z,100884.47
2022-11-26T01:17:02.758Z,100881.69
2022-11-26T01:22:05.739Z,100887.94
2022-11-26T01:27:12.106Z,100893.19
2022-11-26T01:32:15.268Z,100891.66
2022-11-26T01:37:18.110Z,100896.41
2022-11-26T01:42:45.316Z,100893.22
2022-11-26T01:47:48.684Z,100891.53
2022-11-26T01:52:52.555Z,100896.78
2022-11-26T01:57:55.497Z,100914.25
2022-11-26T02:02:58.450Z,100906.25
2022-11-26T02:08:02.290Z,100905.41
2022-11-26T02:13:05.883Z,100911.47
2022-11-26T02:18:09.927Z,100914.16
2022-11-26T02:24:06.405Z,100922.78
2022-11-26T02:29:15.106Z,100920.44
2022-11-26T02:34:34.371Z,100932.41
2022-11-26T02:39:40.367Z,100919.41
2022-11-26T02:44:45.494Z,100914.25
2022-11-26T02:49:50.448Z,100911.47
2022-11-26T02:54:54.661Z,100920.06
2022-11-26T02:59:58.246Z,100926.03
2022-11-26T03:05:03.852Z,100931.28
2022-11-26T03:10:07.817Z,100924.47
2022-11-26T03:15:11.547Z,100938.50
2022-11-26T03:20:16.234Z,100936.97
2022-11-26T03:25:19.445Z,100940.44
2022-11-26T03:30:22.905Z,100945.84
2022-11-26T03:35:25.913Z,100945.91
2022-11-26T03:40:28.833Z,100959.94
2022-11-26T03:45:31.759Z,100972.19
2022-11-26T03:50:34.680Z,100975.94
2022-11-26T03:55:37.583Z,100971.09
2022-11-26T04:00:40.496Z,100969.78
2022-11-26T04:05:43.381Z,100976.03
2022-11-26T04:10:46.248Z,100973.31
2022-11-26T04:15:49.517Z,100973.47
2022-11-26T04:20:53.496Z,100984.28
2022-11-26T04:25:56.520Z,100982.94
2022-11-26T04:30:59.462Z,100992.56
2022-11-26T04:36:02.404Z,100995.28
2022-11-26T04:41:05.731Z,101014.34
2022-11-26T04:46:08.710Z,101010.63
2022-11-26T04:51:11.610Z,101024.47
2022-11-26T04:56:14.712Z,101027.91
2022-11-26T05:01:17.687Z,101045.22
2022-11-26T05:06:21.109Z,101046.72
2022-11-26T05:11:24.151Z,101045.88
2022-11-26T05:16:27.166Z,101048.78
2022-11-26T05:21:30.192Z,101044.28
2022-11-26T05:26:33.060Z,101052.28
2022-11-26T05:31:36.108Z,101052.00
2022-11-26T05:36:38.945Z,101066.31
2022-11-26T05:41:41.946Z,101049.88
2022-11-26T05:46:44.858Z,101062.00
2022-11-26T05:51:47.791Z,101078.63
2022-11-26T05:56:53.125Z,101087.22
2022-11-26T06:01:59.977Z,101095.91
2022-11-26T06:07:02.850Z,101098.44
2022-11-26T06:12:07.242Z,101098.38
2022-11-26T06:17:10.652Z,101103.66
2022-11-26T06:22:13.701Z,101101.97
2022-11-26T06:27:16.568Z,101104.59
2022-11-26T06:32:20.109Z,101107.19
2022-11-26T06:37:23.023Z,101101.84
2022-11-26T06:42:26.129Z,101108.03
2022-11-26T06:47:28.926Z,101108.66
2022-11-26T06:52:31.619Z,101108.44
2022-11-26T06:57:34.597Z,101116.78
2022-11-26T07:02:38.510Z,101126.22
2022-11-26T07:07:42.083Z,101128.19
2022-11-26T07:12:45.080Z,101137.50
2022-11-26T07:17:47.763Z,101152.78
2022-11-26T07:22:50.779Z,101149.50
2022-11-26T07:27:53.658Z,101153.72
2022-11-26T07:32:56.629Z,101139.34
2022-11-26T07:37:59.870Z,101139.78
2022-11-26T07:43:02.916Z,101155.06
2022-11-26T07:48:06.083Z,101142.38
2022-11-26T07:53:08.779Z,101149.19
2022-11-26T07:58:11.788Z,101152.50
2022-11-26T08:03:14.801Z,101157.94
2022-11-26T08:08:17.817Z,101153.81
2022-11-26T08:13:20.784Z,101172.53
2022-11-26T08:18:23.850Z,101178.91
2022-11-26T08:23:28.450Z,101180.09
2022-11-26T08:28:31.322Z,101174.13
2022-11-26T08:33:35.350Z,101183.56
2022-11-26T08:38:38.987Z,101192.31
2022-11-26T08:44:05.545Z,101200.47
2022-11-26T08:49:06.287Z,101200.09
2022-11-26T08:54:10.147Z,101205.56
2022-11-26T08:59:13.064Z,101211.75
2022-11-26T09:04:16.387Z,101209.22
2022-11-26T09:09:19.750Z,101212.72
2022-11-26T09:14:26.316Z,101228.66
2022-11-26T09:19:29.371Z,101224.03
2022-11-26T09:24:32.313Z,101228.00
2022-11-26T09:29:35.134Z,101225.38
2022-11-26T09:34:38.532Z,101231.09
2022-11-26T09:39:42.938Z,101238.56
2022-11-26T09:45:01.753Z,101234.06
2022-11-26T09:50:13.896Z,101235.91
2022-11-26T09:55:26.210Z,101242.75
2022-11-26T10:00:37.507Z,101226.47
2022-11-26T10:05:52.455Z,101226.06
2022-11-26T10:11:38.806Z,101227.50
2022-11-26T10:16:50.734Z,101231.22
2022-11-26T10:22:00.636Z,101228.34
2022-11-26T10:27:26.835Z,101222.97
2022-11-26T10:32:42.525Z,101235.84
2022-11-26T10:37:46.026Z,101227.97
2022-11-26T10:43:21.593Z,101220.16
2022-11-26T10:48:29.284Z,101218.06
2022-11-26T10:53:49.428Z,101210.88
2022-11-26T10:58:54.270Z,101224.03
2022-11-26T11:04:13.881Z,101217.38
2022-11-26T11:09:31.857Z,101207.13
2022-11-26T11:14:41.111Z,101199.84
2022-11-26T11:19:45.500Z,101200.00
2022-11-26T11:24:49.192Z,101215.81
2022-11-26T11:29:52.523Z,101197.28
2022-11-26T11:34:55.438Z,101190.38
2022-11-26T11:40:17.026Z,101188.25
2022-11-26T11:45:42.823Z,101183.94
2022-11-26T11:51:15.125Z,101186.75
2022-11-26T11:56:26.816Z,101178.97
2022-11-26T12:02:17.987Z,101177.59
2022-11-26T12:07:37.596Z,101187.22
2022-11-26T12:12:52.515Z,101181.38
2022-11-26T12:18:31.588Z,101171.78
2022-11-26T12:23:48.969Z,101183.06
2022-11-26T12:29:13.206Z,101182.97
2022-11-26T12:34:39.286Z,101176.84
2022-11-26T12:40:06.406Z,101166.63
2022-11-26T12:45:19.936Z,101169.97
2022-11-26T12:51:03.116Z,101170.94
2022-11-26T12:56:41.864Z,101173.31
2022-11-26T13:01:44.757Z,101164.81
2022-11-26T13:06:53.913Z,101175.53
2022-11-26T13:12:18.334Z,101173.59
2022-11-26T13:17:38.002Z,101179.81
2022-11-26T13:23:24.185Z,101173.56
2022-11-26T13:28:54.491Z,101176.56
2022-11-26T13:34:03.079Z,101179.28
2022-11-26T13:39:49.102Z,101176.16
2022-11-26T13:45:14.412Z,101181.78
2022-11-26T13:50:43.431Z,101190.88
2022-11-26T13:55:52.548Z,101191.19
2022-11-26T14:00:56.600Z,101197.69
2022-11-26T14:06:03.632Z,101192.41
2022-11-26T14:11:11.037Z,101191.91
2022-11-26T14:16:13.978Z,101204.84
2022-11-26T14:21:19.363Z,101192.28
2022-11-26T14:26:40.076Z,101200.47
2022-11-26T14:31:54.644Z,101195.25
2022-11-26T14:37:00.795Z,101194.97
2022-11-26T14:42:06.341Z,101191.19
2022-11-26T14:47:20.832Z,101204.09
2022-11-26T14:52:34.562Z,101201.28
2022-11-26T14:58:13.483Z,101210.78
2022-11-26T15:03:24.608Z,101225.53
2022-11-26T15:08:27.766Z,101220.41
2022-11-26T15:13:43.034Z,101212.81
2022-11-26T15:18:46.508Z,101219.31
2022-11-26T15:23:52.258Z,101224.34
2022-11-26T15:28:55.238Z,101237.19
2022-11-26T15:33:58.704Z,101245.75
2022-11-26T15:39:08.012Z,101242.88
2022-11-26T15:44:26.720Z,101234.78
2022-11-26T15:49:40.261Z,101235.34
2022-11-26T15:55:11.928Z,101251.06
2022-11-26T16:00:22.527Z,101236.94
2022-11-26T16:05:38.785Z,101246.03
2022-11-26T16:10:41.963Z,101241.84
2022-11-26T16:16:16.950Z,101249.06
2022-11-26T16:21:32.989Z,101248.31
2022-11-26T16:27:00.992Z,101234.13
2022-11-26T16:32:04.133Z,101241.16
2022-11-26T16:37:30.039Z,101231.72
2022-11-26T16:42:33.352Z,101227.47
2022-11-26T16:47:49.923Z,101233.88
2022-11-26T16:52:54.317Z,101235.75
2022-11-26T16:58:01.327Z,101239.53
2022-11-26T17:03:04.449Z,101246.84
2022-11-26T17:08:12.029Z,101238.41
2022-11-26T17:13:15.700Z,101245.72
2022-11-26T17:18:25.260Z,101247.78
2022-11-26T17:23:28.942Z,101254.91
2022-11-26T17:28:31.889Z,101254.63
2022-11-26T17:33:34.791Z,101257.03
2022-11-26T17:38:37.851Z,101255.91
2022-11-26T17:43:41.159Z,101245.44
2022-11-26T17:48:44.687Z,101252.84
2022-11-26T17:53:47.978Z,101250.69
2022-11-26T17:58:51.344Z,101249.44
2022-11-26T18:03:54.244Z,101241.34
2022-11-26T18:08:57.156Z,101239.38
2022-11-26T18:13:59.960Z,101242.50
2022-11-26T18:19:02.803Z,101238.63
2022-11-26T18:24:07.844Z,101243.31
2022-11-26T18:29:11.890Z,101240.38
2022-11-26T18:34:14.902Z,101237.81
2022-11-26T18:39:17.938Z,101237.81
2022-11-26T18:44:20.864Z,101248.56
2022-11-26T18:49:24.380Z,101239.72
2022-11-26T18:54:27.277Z,101244.25
2022-11-26T18:59:30.318Z,101244.44
2022-11-26T19:04:33.318Z,101253.81
2022-11-26T19:09:37.990Z,101247.34
2022-11-26T19:14:41.113Z,101251.31
2022-11-26T19:19:44.063Z,101251.63
2022-11-26T19:24:48.558Z,101260.44
2022-11-26T19:29:51.576Z,101256.25
2022-11-26T19:34:54.716Z,101265.81
2022-11-26T19:39:57.627Z,101270.25
2022-11-26T19:45:00.525Z,101268.63
2022-11-26T19:50:03.680Z,101275.91
2022-11-26T19:55:07.006Z,101270.94
2022-11-26T20:00:10.867Z,101273.56
2022-11-26T20:05:13.920Z,101281.44
2022-11-26T20:10:16.864Z,101286.69
2022-11-26T20:15:19.679Z,101285.13
2022-11-26T20:20:22.717Z,101283.53
2022-11-26T20:25:25.599Z,101287.00
2022-11-26T20:30:29.259Z,101282.69
2022-11-26T20:35:32.212Z,101286.34
2022-11-26T20:40:35.351Z,101280.25
2022-11-26T20:45:38.787Z,101277.72
2022-11-26T20:50:41.777Z,101282.13
2022-11-26T20:55:54.149Z,101286.53
2022-11-26T21:00:57.904Z,101290.97
2022-11-26T21:06:04.139Z,101283.28
2022-11-26T21:11:08.214Z,101289.56
2022-11-26T21:16:16.570Z,101290.72
2022-11-26T21:21:21.249Z,101294.47
2022-11-26T21:26:26.019Z,101293.63
2022-11-26T21:31:31.206Z,101302.53
2022-11-26T21:36:36.167Z,101292.84
2022-11-26T21:41:39.036Z,101297.38
2022-11-26T21:46:42.052Z,101302.75
2022-11-26T21:51:45.029Z,101305.38
2022-11-26T21:56:48.068Z,101310.63
2022-11-26T22:01:51.270Z,101322.06
2022-11-26T22:06:54.235Z,101314.25
2022-11-26T22:11:57.225Z,101318.69
2022-11-26T22:16:59.953Z,101321.31
2022-11-26T22:22:02.804Z,101313.63
2022-11-26T22:27:05.689Z,101312.78
2022-11-26T22:32:08.591Z,101317.22
2022-11-26T22:37:11.497Z,101306.03
2022-11-26T22:42:14.497Z,101303.50
2022-11-26T22:47:17.352Z,101307.91
2022-11-26T22:52:20.789Z,101310.53
2022-11-26T22:57:25.548Z,101307.06
2022-11-26T23:02:29.418Z,101317.59
2022-11-26T23:07:32.807Z,101315.03
2022-11-26T23:12:35.700Z,101308.94
2022-11-26T23:17:38.534Z,101305.72
2022-11-26T23:22:41.433Z,101299.75
2022-11-26T23:27:44.910Z,101292.81
2022-11-26T23:32:48.131Z,101286.88
2022-11-26T23:37:51.084Z,101291.28
2022-11-26T23:42:54.027Z,101293.28
2022-11-26T23:47:56.934Z,101300.31
2022-11-26T23:52:59.798Z,101298.59
2022-11-26T23:58:02.728Z,101301.25
